createdAt,value
2022-07-29T00:00:00.291Z,1.83
2022-07-29T00:02:28.276Z,1.60
2022-07-29T00:04:55.589Z,1.80
2022-07-29T00:07:22.807Z,1.92
2022-07-29T00:09:50.926Z,1.90
2022-07-29T00:12:25.549Z,2.08
2022-07-29T00:14:54.704Z,1.90
2022-07-29T00:17:22.380Z,2.20
2022-07-29T00:19:49.603Z,2.38
2022-07-29T00:22:16.916Z,2.35
2022-07-29T00:24:44.135Z,2.00
2022-07-29T00:27:11.358Z,2.00
2022-07-29T00:29:38.584Z,2.10
2022-07-29T00:32:06.137Z,2.20
2022-07-29T00:34:51.917Z,2.17
2022-07-29T00:37:19.141Z,1.77
2022-07-29T00:39:46.390Z,2.10
2022-07-29T00:42:13.661Z,1.88
2022-07-29T00:44:41.416Z,1.60
2022-07-29T00:47:09.527Z,1.90
2022-07-29T00:49:37.139Z,1.80
2022-07-29T00:52:08.058Z,1.67
2022-07-29T00:54:35.715Z,1.55
2022-07-29T00:57:11.816Z,1.80
2022-07-29T00:59:39.093Z,1.63
2022-07-29T01:02:06.461Z,1.20
2022-07-29T01:04:33.767Z,1.50
2022-07-29T01:07:04.321Z,1.30
2022-07-29T01:09:45.484Z,1.40
2022-07-29T01:12:32.741Z,1.27
2022-07-29T01:15:00.437Z,1.13
2022-07-29T01:17:37.842Z,1.10
2022-07-29T01:20:13.552Z,0.95
2022-07-29T01:22:59.581Z,1.20
2022-07-29T01:25:56.305Z,1.20
2022-07-29T01:28:43.699Z,1.17
2022-07-29T01:31:13.424Z,1.00
2022-07-29T01:33:58.876Z,1.30
2022-07-29T01:36:35.114Z,1.20
2022-07-29T01:39:17.958Z,1.08
2022-07-29T01:41:56.990Z,1.17
2022-07-29T01:44:52.426Z,1.20
2022-07-29T01:47:21.925Z,1.27
2022-07-29T01:49:55.547Z,1.20
2022-07-29T01:52:27.186Z,1.27
2022-07-29T01:54:56.867Z,1.20
2022-07-29T01:57:28.696Z,1.50
2022-07-29T01:59:57.127Z,1.20
2022-07-29T02:02:24.367Z,1.30
2022-07-29T02:04:51.685Z,1.38
2022-07-29T02:07:20.579Z,1.15
2022-07-29T02:09:48.572Z,1.17
2022-07-29T02:12:16.473Z,1.20
2022-07-29T02:14:46.710Z,1.27
2022-07-29T02:17:14.192Z,1.10
2022-07-29T02:19:41.409Z,1.10
2022-07-29T02:22:08.651Z,1.38
2022-07-29T02:24:37.030Z,1.10
2022-07-29T02:27:04.506Z,1.33
2022-07-29T02:29:31.776Z,1.20
2022-07-29T02:31:59.210Z,1.27
2022-07-29T02:34:26.433Z,1.20
2022-07-29T02:36:53.741Z,1.33
2022-07-29T02:39:20.979Z,1.20
2022-07-29T02:41:49.587Z,1.50
2022-07-29T02:44:21.871Z,1.00
2022-07-29T02:46:53.277Z,1.27
2022-07-29T02:49:35.548Z,1.35
2022-07-29T02:52:19.304Z,1.17
2022-07-29T02:55:03.147Z,1.05
2022-07-29T02:57:34.271Z,1.23
2022-07-29T03:00:05.701Z,1.35
2022-07-29T03:02:41.238Z,1.02
2022-07-29T03:05:10.451Z,1.20
2022-07-29T03:07:38.043Z,1.20
2022-07-29T03:10:05.950Z,1.20
2022-07-29T03:12:41.909Z,1.30
2022-07-29T03:15:09.548Z,1.25
2022-07-29T03:17:37.372Z,1.13
2022-07-29T03:20:05.167Z,1.25
2022-07-29T03:22:32.399Z,1.30
2022-07-29T03:24:59.619Z,1.17
2022-07-29T03:27:26.837Z,1.10
2022-07-29T03:29:54.082Z,1.27
2022-07-29T03:32:25.092Z,1.33
2022-07-29T03:34:52.757Z,1.10
2022-07-29T03:37:20.004Z,1.20
2022-07-29T03:39:47.300Z,1.27
2022-07-29T03:42:15.712Z,1.23
2022-07-29T03:44:44.017Z,1.17
2022-07-29T03:47:11.476Z,1.20
2022-07-29T03:49:39.014Z,1.40
2022-07-29T03:52:06.781Z,1.48
2022-07-29T03:54:34.096Z,1.40
2022-07-29T03:57:02.369Z,1.50
2022-07-29T03:59:29.587Z,1.13
2022-07-29T04:01:56.933Z,1.48
2022-07-29T04:04:24.246Z,1.40
2022-07-29T04:06:54.570Z,1.20
2022-07-29T04:09:21.983Z,1.20
2022-07-29T04:12:01.705Z,1.20
2022-07-29T04:14:32.812Z,1.30
2022-07-29T04:17:00.915Z,1.30
2022-07-29T04:19:28.245Z,1.20
2022-07-29T04:21:55.485Z,1.40
2022-07-29T04:24:22.744Z,1.70
2022-07-29T04:26:49.988Z,1.30
2022-07-29T04:29:17.230Z,1.35
2022-07-29T04:31:44.797Z,1.25
2022-07-29T04:34:12.355Z,1.42
2022-07-29T04:36:39.635Z,1.50
2022-07-29T04:39:06.881Z,1.40
2022-07-29T04:41:34.546Z,1.30
2022-07-29T04:44:06.901Z,1.40
2022-07-29T04:46:34.877Z,1.42
2022-07-29T04:49:03.325Z,1.48
2022-07-29T04:51:30.645Z,1.45
2022-07-29T04:53:57.915Z,1.30
2022-07-29T04:56:25.136Z,1.50
2022-07-29T04:58:52.394Z,1.42
2022-07-29T05:01:19.960Z,1.70
2022-07-29T05:03:47.359Z,1.20
2022-07-29T05:06:14.604Z,1.20
2022-07-29T05:08:42.078Z,1.50
2022-07-29T05:11:12.057Z,1.52
2022-07-29T05:13:45.302Z,2.35
2022-07-29T05:16:14.293Z,1.85
2022-07-29T05:18:42.022Z,1.50
2022-07-29T05:21:09.307Z,1.48
2022-07-29T05:23:36.616Z,1.08
2022-07-29T05:26:03.868Z,1.50
2022-07-29T05:28:35.028Z,1.40
2022-07-29T05:31:02.754Z,1.40
2022-07-29T05:33:35.807Z,1.40
2022-07-29T05:36:08.199Z,1.67
2022-07-29T05:38:36.461Z,1.40
2022-07-29T05:41:04.172Z,1.50
2022-07-29T05:43:31.405Z,1.52
2022-07-29T05:45:58.827Z,1.40
2022-07-29T05:48:26.308Z,1.50
2022-07-29T05:50:53.639Z,1.40
2022-07-29T05:53:21.545Z,1.65
2022-07-29T05:55:49.451Z,1.45
2022-07-29T05:58:16.866Z,1.50
2022-07-29T06:00:44.173Z,1.65
2022-07-29T06:03:11.577Z,1.42
2022-07-29T06:05:38.830Z,1.63
2022-07-29T06:08:09.208Z,1.60
2022-07-29T06:10:36.502Z,1.70
2022-07-29T06:13:03.953Z,2.15
2022-07-29T06:15:31.178Z,1.60
2022-07-29T06:18:00.354Z,1.95
2022-07-29T06:20:32.119Z,1.70
2022-07-29T06:23:00.168Z,1.50
2022-07-29T06:25:30.235Z,1.50
2022-07-29T06:27:58.298Z,3.15
2022-07-29T06:30:25.584Z,2.83
2022-07-29T06:32:52.960Z,2.28
2022-07-29T06:35:41.549Z,1.60
2022-07-29T06:38:12.008Z,1.52
2022-07-29T06:41:06.936Z,1.50
2022-07-29T06:43:35.245Z,1.33
2022-07-29T06:46:03.718Z,1.52
2022-07-29T06:48:31.099Z,1.38
2022-07-29T06:50:58.455Z,1.50
2022-07-29T06:53:25.786Z,1.50
2022-07-29T06:55:53.013Z,1.63
2022-07-29T06:58:21.455Z,1.10
2022-07-29T07:00:56.788Z,1.30
2022-07-29T07:03:24.084Z,1.70
2022-07-29T07:05:52.413Z,1.30
2022-07-29T07:08:20.407Z,1.45
2022-07-29T07:10:47.709Z,1.20
2022-07-29T07:13:15.773Z,1.20
2022-07-29T07:15:42.983Z,1.30
2022-07-29T07:18:10.270Z,1.52
2022-07-29T07:20:37.695Z,1.25
2022-07-29T07:23:05.611Z,1.00
2022-07-29T07:25:32.843Z,1.52
2022-07-29T07:28:00.091Z,1.10
2022-07-29T07:30:28.146Z,1.10
2022-07-29T07:32:56.244Z,1.30
2022-07-29T07:35:23.495Z,1.30
2022-07-29T07:37:50.767Z,1.70
2022-07-29T07:40:18.540Z,1.45
2022-07-29T07:42:46.199Z,1.60
2022-07-29T07:45:16.293Z,1.70
2022-07-29T07:47:44.118Z,1.27
2022-07-29T07:50:18.047Z,1.20
2022-07-29T07:52:53.563Z,1.20
2022-07-29T07:57:48.470Z,1.20
2022-07-29T08:00:16.354Z,1.30
2022-07-29T08:02:46.393Z,1.20
2022-07-29T08:05:17.576Z,1.30
2022-07-29T08:07:48.411Z,1.30
2022-07-29T08:10:36.525Z,1.67
2022-07-29T08:13:07.684Z,1.35
2022-07-29T08:15:35.136Z,1.55
2022-07-29T08:18:08.220Z,1.80
2022-07-29T08:20:36.792Z,1.63
2022-07-29T08:23:05.278Z,2.80
2022-07-29T08:25:33.263Z,1.58
2022-07-29T08:28:05.070Z,1.40
2022-07-29T08:30:33.242Z,1.70
2022-07-29T08:33:00.628Z,1.60
2022-07-29T08:35:32.098Z,2.30
2022-07-29T08:38:02.293Z,1.60
2022-07-29T08:40:31.833Z,1.20
2022-07-29T08:43:06.451Z,1.48
2022-07-29T08:45:52.533Z,1.60
2022-07-29T08:48:23.751Z,1.55
2022-07-29T08:50:56.320Z,2.13
2022-07-29T08:53:24.801Z,2.15
2022-07-29T08:55:52.129Z,1.67
2022-07-29T08:58:23.006Z,1.60
2022-07-29T09:00:53.386Z,1.50
2022-07-29T09:03:24.785Z,1.50
2022-07-29T09:05:52.143Z,2.00
2022-07-29T09:08:19.548Z,2.08
2022-07-29T09:10:47.053Z,2.13
2022-07-29T09:13:14.268Z,1.70
2022-07-29T09:15:41.556Z,1.80
2022-07-29T09:18:20.501Z,2.35
2022-07-29T09:21:14.808Z,1.80
2022-07-29T09:23:43.748Z,1.95
2022-07-29T09:26:10.984Z,1.70
2022-07-29T09:28:42.559Z,2.03
2022-07-29T09:31:09.872Z,1.83
2022-07-29T09:33:40.103Z,1.90
2022-07-29T09:36:08.391Z,2.40
2022-07-29T09:38:40.475Z,1.73
2022-07-29T09:41:09.733Z,1.85
2022-07-29T09:43:36.960Z,1.67
2022-07-29T09:46:13.949Z,1.83
2022-07-29T09:48:41.294Z,2.03
2022-07-29T09:51:25.483Z,2.10
2022-07-29T09:53:57.159Z,2.05
2022-07-29T09:56:44.671Z,2.42
2022-07-29T09:59:13.044Z,2.20
2022-07-29T10:01:40.444Z,2.63
2022-07-29T10:04:07.735Z,2.35
2022-07-29T10:06:34.970Z,1.92
2022-07-29T10:09:10.199Z,2.50
2022-07-29T10:11:56.780Z,1.90
2022-07-29T10:14:24.140Z,2.20
2022-07-29T10:16:51.357Z,2.22
2022-07-29T10:19:18.640Z,1.75
2022-07-29T10:21:46.024Z,2.00
2022-07-29T10:24:14.965Z,2.45
2022-07-29T10:26:43.235Z,2.10
2022-07-29T10:29:10.558Z,2.15
2022-07-29T10:32:05.767Z,2.38
2022-07-29T10:34:49.664Z,2.20
2022-07-29T10:37:46.522Z,2.22
2022-07-29T10:40:41.605Z,2.30
2022-07-29T10:43:38.767Z,2.75
2022-07-29T10:46:07.454Z,2.22
2022-07-29T10:48:35.877Z,2.00
2022-07-29T10:51:07.773Z,2.28
2022-07-29T10:53:55.403Z,2.20
2022-07-29T10:56:30.253Z,2.08
2022-07-29T10:59:21.542Z,2.30
2022-07-29T11:01:53.567Z,2.00
2022-07-29T11:04:47.102Z,1.90
2022-07-29T11:07:17.343Z,1.92
2022-07-29T11:09:46.416Z,2.05
2022-07-29T11:12:39.312Z,2.10
2022-07-29T11:15:18.063Z,3.25
2022-07-29T11:18:01.450Z,1.80
2022-07-29T11:20:48.232Z,2.10
2022-07-29T11:23:33.443Z,1.90
2022-07-29T11:26:14.468Z,2.23
2022-07-29T11:28:55.981Z,1.77
2022-07-29T11:31:39.263Z,2.13
2022-07-29T11:34:28.034Z,1.90
2022-07-29T11:37:15.543Z,1.92
2022-07-29T11:39:54.205Z,1.55
2022-07-29T11:42:32.068Z,2.00
2022-07-29T11:45:41.886Z,1.98
2022-07-29T11:48:27.879Z,1.70
2022-07-29T11:50:48.288Z,1.95
2022-07-29T11:53:16.114Z,2.00
2022-07-29T11:55:50.853Z,1.88
2022-07-29T11:58:26.193Z,2.08
2022-07-29T12:03:34.797Z,1.92
2022-07-29T12:06:12.226Z,2.08
2022-07-29T12:08:44.299Z,2.15
2022-07-29T12:11:21.245Z,2.35
2022-07-29T12:13:50.279Z,1.98
2022-07-29T12:16:28.164Z,1.98
2022-07-29T12:19:00.703Z,1.92
2022-07-29T12:21:53.661Z,1.85
2022-07-29T12:24:26.999Z,1.92
2022-07-29T12:26:56.075Z,2.30
2022-07-29T12:29:34.504Z,2.00
2022-07-29T12:32:03.438Z,2.05
2022-07-29T12:34:31.029Z,2.28
2022-07-29T12:36:58.344Z,2.03
2022-07-29T12:39:28.647Z,1.92
2022-07-29T12:42:04.544Z,2.08
2022-07-29T12:44:48.884Z,2.15
2022-07-29T12:47:16.824Z,2.00
2022-07-29T12:49:44.037Z,2.17
2022-07-29T12:52:31.494Z,1.90
2022-07-29T12:54:58.922Z,2.00
2022-07-29T12:57:26.743Z,2.20
2022-07-29T13:00:11.875Z,2.30
2022-07-29T13:02:39.464Z,2.47
2022-07-29T13:05:07.392Z,2.30
2022-07-29T13:07:55.627Z,2.30
2022-07-29T13:10:24.910Z,2.30
2022-07-29T13:13:12.059Z,2.20
2022-07-29T13:15:40.543Z,2.17
2022-07-29T13:18:28.112Z,1.88
2022-07-29T13:20:55.837Z,1.80
2022-07-29T13:23:23.322Z,2.00
2022-07-29T13:25:50.640Z,2.22
2022-07-29T13:28:18.379Z,1.95
2022-07-29T13:30:45.696Z,1.88
2022-07-29T13:33:13.001Z,1.80
2022-07-29T13:35:40.389Z,2.35
2022-07-29T13:38:08.252Z,2.08
2022-07-29T13:40:36.283Z,2.13
2022-07-29T13:43:03.543Z,2.20
2022-07-29T13:45:31.287Z,2.05
2022-07-29T13:47:58.579Z,2.30
2022-07-29T13:50:25.835Z,2.13
2022-07-29T13:52:53.607Z,1.95
2022-07-29T13:55:20.859Z,2.17
2022-07-29T13:57:48.535Z,2.00
2022-07-29T14:00:16.989Z,1.85
2022-07-29T14:02:44.196Z,1.90
2022-07-29T14:05:11.598Z,1.83
2022-07-29T14:07:42.041Z,1.60
2022-07-29T14:10:09.782Z,1.98
2022-07-29T14:12:37.249Z,1.65
2022-07-29T14:15:04.964Z,1.80
2022-07-29T14:17:32.199Z,1.60
2022-07-29T14:19:59.445Z,1.92
2022-07-29T14:22:26.793Z,1.77
2022-07-29T14:24:54.038Z,1.70
2022-07-29T14:27:37.630Z,1.48
2022-07-29T14:30:07.037Z,1.98
2022-07-29T14:32:34.348Z,1.60
2022-07-29T14:35:01.576Z,1.73
2022-07-29T14:37:28.853Z,2.00
2022-07-29T14:40:08.622Z,1.88
2022-07-29T14:42:37.065Z,1.65
2022-07-29T14:45:06.505Z,1.90
2022-07-29T14:47:33.791Z,2.00
2022-07-29T14:50:01.066Z,1.88
2022-07-29T14:52:28.286Z,1.90
2022-07-29T14:54:55.515Z,1.65
2022-07-29T14:57:22.741Z,2.00
2022-07-29T14:59:49.988Z,1.88
2022-07-29T15:02:17.281Z,1.73
2022-07-29T15:04:46.664Z,1.55
2022-07-29T15:07:13.959Z,1.90
2022-07-29T15:09:49.921Z,2.20
2022-07-29T15:12:17.520Z,2.00
2022-07-29T15:14:44.765Z,1.90
2022-07-29T15:17:12.049Z,2.10
2022-07-29T15:19:39.768Z,2.38
2022-07-29T15:22:12.345Z,2.10
2022-07-29T15:24:39.724Z,2.05
2022-07-29T15:27:07.007Z,2.30
2022-07-29T15:29:34.233Z,2.10
2022-07-29T15:32:02.200Z,2.00
2022-07-29T15:34:29.696Z,2.20
2022-07-29T15:36:57.680Z,2.30
2022-07-29T15:39:24.927Z,2.42
2022-07-29T15:41:52.210Z,2.60
2022-07-29T15:44:19.869Z,2.20
2022-07-29T15:47:03.902Z,2.70
2022-07-29T15:49:46.557Z,2.55
2022-07-29T15:52:25.991Z,2.67
2022-07-29T15:54:57.524Z,2.38
2022-07-29T15:57:24.919Z,2.85
2022-07-29T15:59:52.243Z,2.45
2022-07-29T16:02:19.612Z,2.40
2022-07-29T16:04:47.188Z,2.60
2022-07-29T16:07:14.912Z,2.55
2022-07-29T16:09:42.750Z,2.78
2022-07-29T16:12:15.078Z,2.10
2022-07-29T16:14:45.906Z,2.72
2022-07-29T16:17:14.953Z,2.47
2022-07-29T16:19:43.365Z,3.00
2022-07-29T16:22:10.926Z,2.50
2022-07-29T16:24:38.875Z,2.95
2022-07-29T16:27:06.181Z,3.03
2022-07-29T16:29:33.523Z,2.72
2022-07-29T16:32:01.821Z,2.55
2022-07-29T16:34:29.585Z,2.80
2022-07-29T16:36:56.825Z,3.28
2022-07-29T16:39:24.051Z,3.13
2022-07-29T16:41:51.312Z,2.53
2022-07-29T16:44:18.548Z,2.45
2022-07-29T16:46:45.804Z,2.97
2022-07-29T16:49:18.357Z,2.78
2022-07-29T16:51:47.810Z,2.83
2022-07-29T16:54:15.347Z,3.30
2022-07-29T16:56:42.564Z,3.13
2022-07-29T16:59:09.796Z,2.70
2022-07-29T17:01:37.095Z,2.75
2022-07-29T17:04:07.176Z,3.25
2022-07-29T17:06:37.035Z,3.10
2022-07-29T17:09:05.045Z,3.08
2022-07-29T17:11:52.580Z,3.20
2022-07-29T17:14:23.431Z,3.10
2022-07-29T17:16:55.265Z,2.97
2022-07-29T17:19:35.125Z,2.70
2022-07-29T17:22:19.386Z,2.58
2022-07-29T17:24:47.565Z,2.70
2022-07-29T17:27:15.315Z,2.30
2022-07-29T17:29:42.870Z,2.55
2022-07-29T17:32:10.250Z,2.20
2022-07-29T17:34:38.305Z,2.13
2022-07-29T17:37:06.107Z,2.55
2022-07-29T17:39:35.255Z,2.30
2022-07-29T17:42:03.586Z,2.92
2022-07-29T17:44:30.826Z,2.00
2022-07-29T17:47:00.389Z,1.88
2022-07-29T17:49:28.158Z,1.88
2022-07-29T17:51:59.012Z,1.80
2022-07-29T17:54:28.184Z,1.67
2022-07-29T17:56:55.703Z,1.77
2022-07-29T17:59:23.042Z,1.85
2022-07-29T18:01:50.387Z,1.73
2022-07-29T18:04:20.899Z,2.97
2022-07-29T18:06:48.157Z,2.45
2022-07-29T18:09:15.460Z,1.90
2022-07-29T18:11:44.450Z,1.65
2022-07-29T18:14:13.431Z,1.60
2022-07-29T18:16:40.982Z,1.70
2022-07-29T18:19:08.698Z,1.10
2022-07-29T18:21:51.262Z,1.30
2022-07-29T18:24:25.191Z,1.50
2022-07-29T18:26:52.558Z,1.45
2022-07-29T18:29:19.825Z,1.48
2022-07-29T18:31:47.110Z,1.60
2022-07-29T18:34:14.407Z,1.42
2022-07-29T18:36:41.655Z,1.60
2022-07-29T18:39:08.875Z,1.48
2022-07-29T18:41:46.135Z,1.80
2022-07-29T18:44:22.021Z,1.83
2022-07-29T18:46:51.227Z,1.70
2022-07-29T18:49:18.805Z,1.70
2022-07-29T18:51:46.169Z,1.95
2022-07-29T18:54:13.434Z,2.70
2022-07-29T18:56:40.731Z,2.47
2022-07-29T18:59:08.181Z,1.88
2022-07-29T19:01:35.519Z,1.80
2022-07-29T19:04:03.037Z,1.75
2022-07-29T19:06:30.284Z,1.92
2022-07-29T19:08:57.544Z,1.90
2022-07-29T19:11:24.837Z,1.95
2022-07-29T19:13:52.085Z,1.95
2022-07-29T19:16:19.419Z,2.08
2022-07-29T19:18:47.358Z,2.17
2022-07-29T19:21:14.691Z,2.42
2022-07-29T19:24:05.771Z,2.72
2022-07-29T19:26:29.983Z,2.58
2022-07-29T19:28:57.318Z,2.40
2022-07-29T19:31:24.685Z,2.65
2022-07-29T19:33:52.009Z,2.78
2022-07-29T19:36:19.300Z,2.70
2022-07-29T19:38:46.532Z,3.00
2022-07-29T19:41:13.831Z,2.88
2022-07-29T19:43:52.093Z,2.90
2022-07-29T19:46:23.538Z,2.90
2022-07-29T19:48:51.219Z,2.97
2022-07-29T19:51:18.578Z,3.08
2022-07-29T19:53:45.833Z,2.67
2022-07-29T19:56:13.052Z,3.30
2022-07-29T19:58:40.795Z,3.00
2022-07-29T20:01:10.124Z,2.85
2022-07-29T20:03:40.042Z,3.00
2022-07-29T20:06:07.704Z,2.92
2022-07-29T20:08:34.976Z,2.80
2022-07-29T20:11:02.680Z,2.70
2022-07-29T20:13:31.677Z,2.70
2022-07-29T20:15:59.753Z,2.53
2022-07-29T20:18:27.300Z,2.75
2022-07-29T20:20:56.568Z,2.80
2022-07-29T20:23:23.856Z,2.72
2022-07-29T20:25:51.156Z,2.85
2022-07-29T20:28:18.372Z,2.95
2022-07-29T20:30:45.754Z,2.65
2022-07-29T20:33:14.895Z,3.00
2022-07-29T20:35:43.390Z,2.80
2022-07-29T20:38:13.865Z,2.63
2022-07-29T20:40:44.389Z,3.42
2022-07-29T20:43:11.635Z,2.70
2022-07-29T20:45:39.483Z,3.50
2022-07-29T20:48:06.950Z,3.22
2022-07-29T20:50:35.868Z,3.15
2022-07-29T20:53:03.393Z,2.92
2022-07-29T20:55:31.941Z,3.35
2022-07-29T20:57:59.193Z,3.05
2022-07-29T21:00:26.442Z,3.35
2022-07-29T21:02:53.798Z,3.35
2022-07-29T21:05:21.061Z,3.50
2022-07-29T21:07:48.321Z,3.40
2022-07-29T21:10:18.128Z,3.15
2022-07-29T21:12:48.424Z,3.28
2022-07-29T21:15:16.195Z,3.50
2022-07-29T21:17:47.076Z,3.85
2022-07-29T21:20:18.335Z,3.45
2022-07-29T21:22:45.625Z,3.60
2022-07-29T21:25:12.961Z,3.70
2022-07-29T21:27:58.637Z,3.78
2022-07-29T21:30:25.873Z,4.18
2022-07-29T21:32:53.133Z,4.13
2022-07-29T21:35:35.949Z,3.63
2022-07-29T21:38:07.596Z,3.95
2022-07-29T21:40:34.839Z,3.85
2022-07-29T21:43:02.079Z,4.50
2022-07-29T21:45:29.347Z,3.90
2022-07-29T21:47:56.589Z,3.85
2022-07-29T21:50:23.884Z,4.00
2022-07-29T21:52:51.148Z,3.30
2022-07-29T21:55:18.618Z,4.03
2022-07-29T21:57:46.646Z,4.03
2022-07-29T22:00:17.049Z,4.10
2022-07-29T22:02:44.484Z,4.00
2022-07-29T22:05:12.300Z,4.25
2022-07-29T22:07:54.560Z,4.13
2022-07-29T22:10:28.363Z,3.92
2022-07-29T22:12:57.108Z,4.00
2022-07-29T22:15:24.614Z,4.00
2022-07-29T22:17:51.875Z,3.88
2022-07-29T22:20:19.314Z,3.42
2022-07-29T22:22:46.923Z,3.50
2022-07-29T22:25:14.201Z,3.85
2022-07-29T22:27:41.445Z,3.83
2022-07-29T22:30:09.212Z,3.55
2022-07-29T22:32:36.491Z,3.83
2022-07-29T22:35:03.933Z,3.30
2022-07-29T22:37:31.228Z,3.55
2022-07-29T22:39:58.479Z,4.18
2022-07-29T22:42:25.695Z,3.45
2022-07-29T22:44:52.931Z,3.53
2022-07-29T22:47:46.638Z,4.03
2022-07-29T22:50:07.752Z,3.83
2022-07-29T22:52:34.967Z,3.45
2022-07-29T22:55:03.170Z,3.17
2022-07-29T22:57:30.463Z,3.20
2022-07-29T22:59:57.721Z,3.10
2022-07-29T23:02:24.934Z,3.05
2022-07-29T23:04:52.145Z,3.25
2022-07-29T23:07:19.374Z,3.15
2022-07-29T23:09:46.799Z,3.20
2022-07-29T23:12:14.043Z,3.38
2022-07-29T23:14:41.307Z,2.78
2022-07-29T23:17:08.555Z,2.72
2022-07-29T23:19:35.847Z,2.97
2022-07-29T23:22:03.064Z,2.70
2022-07-29T23:24:30.306Z,2.63
2022-07-29T23:26:57.886Z,2.60
2022-07-29T23:29:25.284Z,2.65
2022-07-29T23:31:52.520Z,3.08
2022-07-29T23:34:19.776Z,2.28
2022-07-29T23:36:47.011Z,2.75
2022-07-29T23:39:14.579Z,2.40
2022-07-29T23:41:42.012Z,2.40
2022-07-29T23:44:09.474Z,2.35
2022-07-29T23:46:36.814Z,2.38
2022-07-29T23:49:04.095Z,2.33
2022-07-29T23:51:32.916Z,2.47
2022-07-29T23:54:00.183Z,2.50
2022-07-29T23:56:27.404Z,2.47
2022-07-29T23:58:54.638Z,2.20
